Buoy 47557

sailwx.info

Track history (hours):
 
Tides and Currents Weather Stations Pressure Air Temp Water Temp Dewpoint Dewpoint Depression Visibility Wind Speed Wind Dir Waves Ship Positions

Drifting buoy 47557

Last reported at 2017-Jan-21 03:00 UTC. Time now 2017-Jan-21 04:23 UTC.
Position N 50°39' W 017°01'.

Barometer 1017.4 mb
Water temperature 12.0 ° C

Date/timePositionNaut miles runAvg speedWind from/ knotsBaromVisibWave heightAir tempDewpointWater temp
2017-Jan-21 03:00N 50°39' W 017°01'0 0.4 1017.4 12.0
2017-Jan-21 02:00N 50°39' W 017°00'0 0.0 1017.6 12.0
2017-Jan-21 01:00N 50°39' W 017°00'0 0.4 1018.1 12.0
2017-Jan-21 00:00N 50°39' W 016°59'1 0.8 1018.4 12.0
2017-Jan-20 23:00N 50°39' W 016°58'0 0.4 1018.8 12.0
2017-Jan-20 22:00N 50°39' W 016°58'0 0.4 1019.1 12.0
2017-Jan-20 21:00N 50°39' W 016°57'1 0.7 1019.4 12.0
2017-Jan-20 20:00N 50°40' W 016°56'1 0.6 1019.7 12.0
2017-Jan-20 19:00N 50°40' W 016°56'0 0.0 1019.9 12.0
2017-Jan-20 18:00N 50°40' W 016°56'1 0.7 1020.2 12.0
2017-Jan-20 17:00N 50°41' W 016°56'0 0.0 1020.3 12.0
2017-Jan-20 16:00N 50°41' W 016°56'0 0.0 1020.8 12.0
2017-Jan-20 15:00N 50°41' W 016°56'1 0.8 1021.1 12.0
2017-Jan-20 14:00N 50°41' W 016°55'0 0.0 1021.8 12.0
2017-Jan-20 13:00N 50°41' W 016°55'0 0.4 1022.5 12.0
2017-Jan-20 12:00N 50°41' W 016°54'1 1.0 1023.3 12.0
2017-Jan-20 11:00N 50°41' W 016°53'1 0.8 1023.6 12.0
2017-Jan-20 10:00N 50°41' W 016°52'0 0.0 1023.8 12.0
2017-Jan-20 09:00N 50°41' W 016°52'1 0.7 1024.1 12.0
2017-Jan-20 08:00N 50°42' W 016°51'1 0.7 1024.1 12.0
2017-Jan-20 07:00N 50°43' W 016°50'0 0.4 1024.2 12.0
2017-Jan-20 06:00N 50°43' W 016°50'1 0.6 1024.5 12.0
2017-Jan-20 05:00N 50°43' W 016°50'0 0.0 1025.3 12.0
2017-Jan-20 04:00N 50°43' W 016°50'0 0.4 1025.2 12.0
2017-Jan-20 03:00N 50°43' W 016°49'1 0.4 1025.5 12.0
2017-Jan-20 01:00N 50°44' W 016°49'0 0.4 1025.9 12.0
2017-Jan-20 00:00N 50°44' W 016°48'1 0.8 1026.1 12.0
2017-Jan-19 23:00N 50°44' W 016°47'0 0.0 1026.5 12.0
2017-Jan-19 22:00N 50°44' W 016°47'1 0.7 1026.7 12.0
2017-Jan-19 21:00N 50°44' W 016°46'0 0.0 1027.1 12.0
2017-Jan-19 20:00N 50°44' W 016°46'1 0.7 1027.4 12.0
2017-Jan-19 19:00N 50°45' W 016°46'0 0.0 1027.5 12.0
2017-Jan-19 18:00N 50°45' W 016°46'1 0.6 1027.4 12.0
2017-Jan-19 17:00N 50°46' W 016°46'0 0.0 1027.5 12.0
2017-Jan-19 16:00N 50°46' W 016°46'0 0.4 1027.5 12.0
2017-Jan-19 15:00N 50°46' W 016°45'0 0.0 1027.3 12.0
2017-Jan-19 14:00N 50°46' W 016°45'0 0.4 1027.7 12.0
2017-Jan-19 13:00N 50°46' W 016°44'0 0.4 1028.2 11.9
2017-Jan-19 12:00N 50°46' W 016°44'1 0.8 1028.4 11.9
2017-Jan-19 11:00N 50°46' W 016°43'1 1.0 1028.6 11.9
2017-Jan-19 10:00N 50°46' W 016°41'0 0.0 1028.6 11.9
2017-Jan-19 09:00N 50°46' W 016°41'1 0.7 1028.4 11.9
2017-Jan-19 08:00N 50°47' W 016°41'0 0.4 1028.3 11.9
2017-Jan-19 07:00N 50°47' W 016°40'1 0.6 1028.2 11.9
2017-Jan-19 06:00N 50°47' W 016°40'1 0.7 1028.0 11.9
2017-Jan-19 05:00N 50°48' W 016°40'0 0.0 1028.2 11.9
2017-Jan-19 04:00N 50°48' W 016°40'0 0.0 1028.0 11.9
2017-Jan-19 03:00N 50°48' W 016°40'0 0.4 1028.0 11.9
2017-Jan-19 02:00N 50°48' W 016°39'0 0.4 1028.0 11.9
2017-Jan-19 01:00N 50°48' W 016°38'0 0.4 1028.2 11.9
2017-Jan-19 00:00N 50°48' W 016°38'1 0.7 1028.2 11.9
2017-Jan-18 23:00N 50°49' W 016°37'0 0.4 1028.2 11.9
2017-Jan-18 22:00N 50°49' W 016°37'1 1.0 1028.0 11.9
2017-Jan-18 21:00N 50°49' W 016°35'0 0.0 1028.1 11.9
2017-Jan-18 20:00N 50°49' W 016°35'1 0.7 1028.1 11.9
2017-Jan-18 19:00N 50°50' W 016°35'0 0.4 1027.9 11.9
2017-Jan-18 18:00N 50°50' W 016°34'1 0.6 1027.7 11.9
2017-Jan-18 17:00N 50°50' W 016°34'0 0.0 1027.7 11.9
2017-Jan-18 16:00N 50°50' W 016°34'1 0.7 1027.7 11.9
2017-Jan-18 15:00N 50°51' W 016°34'0 0.0 1027.9 12.0
2017-Jan-18 14:00N 50°51' W 016°34'0 0.0 1028.3 12.0
2017-Jan-18 13:00N 50°51' W 016°34'0 0.4 1028.7 12.0
2017-Jan-18 12:00N 50°51' W 016°33'0 0.4 1028.8 12.0
2017-Jan-18 11:00N 50°51' W 016°32'1 0.7 1029.0 12.0
2017-Jan-18 10:00N 50°52' W 016°32'0 0.4 1028.7 12.0
2017-Jan-18 09:00N 50°52' W 016°31'0 0.4 1028.4 12.0
2017-Jan-18 08:00N 50°52' W 016°31'1 0.6 1028.1 12.0
2017-Jan-18 07:00N 50°52' W 016°31'1 0.6 1027.8 12.0
2017-Jan-18 06:00N 50°53' W 016°31'0 0.4 1027.8 12.0
2017-Jan-18 05:00N 50°53' W 016°30'0 0.0 1027.7 12.0
2017-Jan-18 04:00N 50°53' W 016°30'1 0.6 1027.7 12.0
2017-Jan-18 03:00N 50°53' W 016°30'0 0.0 1028.1 12.0
2017-Jan-18 02:00N 50°53' W 016°30'0 0.0 1028.3 12.0
2017-Jan-18 01:00N 50°53' W 016°30'0 0.4 1028.3 12.0
2017-Jan-18 00:00N 50°53' W 016°29'0 0.4 1028.3 12.0
2017-Jan-17 23:00N 50°53' W 016°29'0 0.4 1028.2 12.0
2017-Jan-17 22:00N 50°53' W 016°28'0 0.4 1028.2 12.0
2017-Jan-17 21:00N 50°53' W 016°28'1 0.7 1028.0 12.0
2017-Jan-17 20:00N 50°54' W 016°27'0 0.0 1028.1 12.0
2017-Jan-17 19:00N 50°54' W 016°27'1 0.6 1027.6 12.0
2017-Jan-17 18:00N 50°55' W 016°27'1 0.6 1027.4 12.0
2017-Jan-17 17:00N 50°55' W 016°27'0 0.4 1027.2 12.0
2017-Jan-17 16:00N 50°55' W 016°28'1 0.6 1027.3 12.0
2017-Jan-17 15:00N 50°56' W 016°28'0 0.0 1027.2 12.0
2017-Jan-17 14:00N 50°56' W 016°28'0 0.0 1027.6 12.0
2017-Jan-17 13:00N 50°56' W 016°28'0 0.0 1027.9 12.0
2017-Jan-17 12:00N 50°56' W 016°28'0 0.4 1028.2 12.0
2017-Jan-17 11:00N 50°56' W 016°27'0 0.0 1028.2 12.0
2017-Jan-17 10:00N 50°56' W 016°27'1 1.0 1027.9 12.0
2017-Jan-17 09:00N 50°56' W 016°26'0 0.0 1027.7 12.0
2017-Jan-17 08:00N 50°56' W 016°26'0 0.0 1027.4 12.0
2017-Jan-17 07:00N 50°56' W 016°26'1 0.7 1027.5 12.0
2017-Jan-17 06:00N 50°57' W 016°25'0 0.0 1027.5 12.0
2017-Jan-17 05:00N 50°57' W 016°25'1 0.6 1027.9 12.0
2017-Jan-17 04:00N 50°58' W 016°25'0 0.4 1027.9 12.0
2017-Jan-17 03:00N 50°58' W 016°26'1 0.3 1028.2 12.0
2017-Jan-17 01:00N 50°58' W 016°26'0 0.4 1028.6 12.0
2017-Jan-17 00:00N 50°58' W 016°25'0 0.0 1028.8 12.0
2017-Jan-16 23:00N 50°58' W 016°25'1 0.7 1028.9 12.0
2017-Jan-16 22:00N 50°59' W 016°25'0 0.0 1028.8 12.0
2017-Jan-16 21:00N 50°59' W 016°25'1 0.7 1028.8 12.0
2017-Jan-16 20:00N 50°59' W 016°24'0 0.0 1028.8 12.0
2017-Jan-16 19:00N 50°59' W 016°24'1 0.6 1028.8 12.0
2017-Jan-16 18:00N 51°00' W 016°24'1 0.6 1028.9 12.0
2017-Jan-16 17:00N 51°01' W 016°24'0 0.4 1028.7 12.0
2017-Jan-16 16:00N 51°01' W 016°25'1 0.7 1028.9 12.1
2017-Jan-16 15:00N 51°01' W 016°25'0 0.0 1029.1 12.1
2017-Jan-16 14:00N 51°01' W 016°25'0 0.4 1029.5 12.1
2017-Jan-16 13:00N 51°01' W 016°26'1 0.6 1029.9 12.1
2017-Jan-16 12:00N 51°02' W 016°26'0 0.4 1030.4 12.1
2017-Jan-16 11:00N 51°02' W 016°25'0 0.0 1030.4 12.1
2017-Jan-16 10:00N 51°02' W 016°25'0 0.4 1030.1 12.1
2017-Jan-16 09:00N 51°02' W 016°25'0 0.0 1029.9 12.1
2017-Jan-16 08:00N 51°02' W 016°25'0 0.0 1029.4 12.1
2017-Jan-16 07:00N 51°02' W 016°25'1 0.7 1029.4 12.1
2017-Jan-16 06:00N 51°02' W 016°25'0 0.4 1029.4 12.1
2017-Jan-16 05:00N 51°02' W 016°26'1 0.6 1029.6 12.2
2017-Jan-16 04:00N 51°03' W 016°26'0 0.4 1029.7 12.2
2017-Jan-16 03:00N 51°03' W 016°26'1 0.7 1029.9 12.2
2017-Jan-16 01:00N 51°04' W 016°28'0 0.0 1030.1 12.2
2017-Jan-16 00:00N 51°04' W 016°28'0 0.0 1030.0 12.2
2017-Jan-15 23:00N 51°04' W 016°28'1 0.6 1030.1 12.2
2017-Jan-15 22:00N 51°05' W 016°28'0 0.0 1030.2 12.2
2017-Jan-15 21:00N 51°05' W 016°28'1 0.6 1030.1 12.2
2017-Jan-15 20:00N 51°05' W 016°28'0 0.0 1030.0 12.2
2017-Jan-15 19:00N 51°05' W 016°28'1 0.7 1030.0 12.2
2017-Jan-15 18:00N 51°06' W 016°28'0 0.0 1029.9 12.2
2017-Jan-15 17:00N 51°06' W 016°28'0 0.4 1029.8 12.2
2017-Jan-15 16:00N 51°06' W 016°29'1 0.7 1029.9 12.2
2017-Jan-15 15:00N 51°07' W 016°29'0 0.0 1029.9 12.2
2017-Jan-15 14:00N 51°07' W 016°29'1 0.7 1030.2 12.2
2017-Jan-15 13:00N 51°07' W 016°30'0 0.0 1030.4 12.2
2017-Jan-15 12:00N 51°07' W 016°30'0 0.0 1030.7 12.3
2017-Jan-15 11:00N 51°07' W 016°30'1 0.6 1030.7 12.3
2017-Jan-15 10:00N 51°08' W 016°30'0 0.0 1030.6 12.3
2017-Jan-15 09:00N 51°08' W 016°30'0 0.0 1030.2 12.3
2017-Jan-15 08:00N 51°08' W 016°30'0 0.0 1029.9 12.3
2017-Jan-15 07:00N 51°08' W 016°30'1 0.7 1029.7 12.3
2017-Jan-15 06:00N 51°08' W 016°29'0 0.0 1029.7 12.3
2017-Jan-15 05:00N 51°08' W 016°29'0 0.4 1029.7 12.3
2017-Jan-15 04:00N 51°08' W 016°30'0 0.0 1029.7 12.3
2017-Jan-15 03:00N 51°08' W 016°30'0 0.4 1029.7 12.3
2017-Jan-15 02:00N 51°08' W 016°31'1 0.7 1029.9 12.3
2017-Jan-15 01:00N 51°09' W 016°31'0 0.0 1030.3 12.3
2017-Jan-15 00:00N 51°09' W 016°31'1 0.6 1030.6 12.3
2017-Jan-14 23:00N 51°10' W 016°31'0 0.4 1030.9 12.3
2017-Jan-14 22:00N 51°10' W 016°32'1 1.2 1031.2 12.3
2017-Jan-14 21:00N 51°11' W 016°32'0 0.0 1031.2 12.3
2017-Jan-14 20:00N 51°11' W 016°32'0 0.0 1031.2 12.3
2017-Jan-14 19:00N 51°11' W 016°32'0 0.0 1031.3 12.3
2017-Jan-14 18:00N 51°11' W 016°32'1 0.6 1031.4 12.3
2017-Jan-14 17:00N 51°11' W 016°32'0 0.4 1031.7 12.3
2017-Jan-14 16:00N 51°11' W 016°32'1 0.6 1031.9 12.3
2017-Jan-14 15:00N 51°12' W 016°32'1 0.7 1032.2 12.3
2017-Jan-14 14:00N 51°13' W 016°33'0 0.4 1032.8 12.3
2017-Jan-14 13:00N 51°13' W 016°34'1 0.6 1033.3 12.3
2017-Jan-14 12:00N 51°13' W 016°34'0 0.4 1034.1 12.3
2017-Jan-14 11:00N 51°13' W 016°34'1 0.6 1034.1 12.3
2017-Jan-14 10:00N 51°14' W 016°34'1 0.6 1034.2 12.3
2017-Jan-14 09:00N 51°14' W 016°34'1 0.6 1033.5 12.3
2017-Jan-14 08:00N 51°15' W 016°34'0 0.0 1033.4 12.3
2017-Jan-14 07:00N 51°15' W 016°34'1 0.6 1033.2 12.3
2017-Jan-14 06:00N 51°16' W 016°34'1 0.6 1033.3 12.3
2017-Jan-14 05:00N 51°16' W 016°34'1 0.6 1034.1 12.3
2017-Jan-14 04:00N 51°17' W 016°34'1 0.7 1034.2 12.3
2017-Jan-14 03:00N 51°17' W 016°35'1 0.7 1034.4 12.3
2017-Jan-14 02:00N 51°18' W 016°35'0 0.4 1034.4 12.3
2017-Jan-14 01:00N 51°18' W 016°36'1 0.7 1034.6 12.3
2017-Jan-14 00:00N 51°19' W 016°37'1 0.7 1034.5 12.3
2017-Jan-13 23:00N 51°19' W 016°37'1 0.6 1034.3 12.3
2017-Jan-13 22:00N 51°20' W 016°37'1 1.3 1033.9 12.3
2017-Jan-13 21:00N 51°21' W 016°38'0 0.0 1033.7 12.3
2017-Jan-13 20:00N 51°21' W 016°38'1 0.6 1033.4 12.3
2017-Jan-13 19:00N 51°22' W 016°38'1 0.6 1033.5 12.3
2017-Jan-13 18:00N 51°22' W 016°38'1 0.6 1033.0 12.3
2017-Jan-13 17:00N 51°23' W 016°38'1 1.4 1032.7 12.3
2017-Jan-13 16:00N 51°24' W 016°39'0 0.0 1032.5 12.3
2017-Jan-13 15:00N 51°24' W 016°39'1 1.3 1032.9 12.3
2017-Jan-13 14:00N 51°25' W 016°40'1 0.7 1033.1 12.3
2017-Jan-13 13:00N 51°26' W 016°40'1 0.7 1033.5 12.3
2017-Jan-13 12:00N 51°26' W 016°41'1 1.2 1033.6 12.3
2017-Jan-13 11:00N 51°28' W 016°41'1 0.7 1033.2 12.3
2017-Jan-13 10:00N 51°28' W 016°41'1 1.3 1032.9 12.3
2017-Jan-13 09:00N 51°29' W 016°42'1 0.7 1032.5 12.3
2017-Jan-13 08:00N 51°30' W 016°43'1 0.7 1031.6 12.3
2017-Jan-13 07:00N 51°31' W 016°43'1 1.3 1030.9 12.3
2017-Jan-13 06:00N 51°32' W 016°44'1 0.7 1030.9 12.3
2017-Jan-13 05:00N 51°32' W 016°44'1 1.4 1030.2 12.3
2017-Jan-13 04:00N 51°34' W 016°46'0 0.0 1030.3 12.3
2017-Jan-13 03:00N 51°34' W 016°46'1 0.7 1029.9 12.3
2017-Jan-13 02:00N 51°34' W 016°46'2 2.4 1029.2 12.3
2017-Jan-13 01:00N 51°37' W 016°47'0 0.0 1028.4 12.3
2017-Jan-13 00:00N 51°37' W 016°47'1 1.4 1027.8 12.3
2017-Jan-12 23:00N 51°38' W 016°48'3 2.5 1027.2 12.3
2017-Jan-12 22:00N 51°40' W 016°49'0 0.0 1026.5 12.3
2017-Jan-12 21:00N 51°40' W 016°49'1 1.4 1025.8 12.4
2017-Jan-12 20:00N 51°41' W 016°50'1 1.3 1024.8 12.4
2017-Jan-12 19:00N 51°43' W 016°51'1 1.4 1023.5 12.3
2017-Jan-12 18:00N 51°44' W 016°52'2 2.3 1023.0 12.3
2017-Jan-12 17:00N 51°46' W 016°55'0 0.0 1022.1 12.3
2017-Jan-12 16:00N 51°46' W 016°55'1 1.0 1021.3 12.3
2017-Jan-12 15:00N 51°46' W 016°56'1 1.0 1020.4 12.3
2017-Jan-12 14:00N 51°47' W 016°57'1 1.4 1020.1 12.3
2017-Jan-12 13:00N 51°48' W 016°58'1 1.4 1020.2 12.3
2017-Jan-12 12:00N 51°49' W 016°59'1 0.7 1020.1 12.3
2017-Jan-12 11:00N 51°50' W 017°00'1 1.4 1019.5 12.3
2017-Jan-12 10:00N 51°51' W 017°01'3 2.8 1018.7 12.3
2017-Jan-12 09:00N 51°53' W 017°04'0 0.0 1018.5 12.3
2017-Jan-12 08:00N 51°53' W 017°04'1 1.4 1018.3 12.3
2017-Jan-12 07:00N 51°55' W 017°05'1 1.4 1017.9 12.3
2017-Jan-12 06:00N 51°56' W 017°06'1 1.3 1018.1 12.3
2017-Jan-12 05:00N 51°56' W 017°08'1 1.0 1018.6 12.3
2017-Jan-12 04:00N 51°57' W 017°09'3 2.5 1019.0 12.3
2017-Jan-12 03:00N 51°58' W 017°13'0 0.0 1019.7 12.2
2017-Jan-12 02:00N 51°58' W 017°13'1 1.0 1020.4 12.3
2017-Jan-12 01:00N 51°59' W 017°14'1 1.3 1021.3 12.3
2017-Jan-12 00:00N 51°59' W 017°16'1 1.0 1022.1 12.3
2017-Jan-11 23:00N 52°00' W 017°17'2 2.2 1022.5 12.3
2017-Jan-11 22:00N 52°01' W 017°20'0 0.0 1023.2 12.3
2017-Jan-11 21:00N 52°01' W 017°20'1 0.7 1023.6 12.3
2017-Jan-11 20:00N 52°02' W 017°20'1 1.0 1024.5 12.3
2017-Jan-11 19:00N 52°02' W 017°22'1 1.0 1024.8 12.3
2017-Jan-11 18:00N 52°03' W 017°23'1 1.0 1025.1 12.3
2017-Jan-11 17:00N 52°04' W 017°24'1 1.1 1025.4 12.3
2017-Jan-11 16:00N 52°04' W 017°26'1 1.0 1026.0 12.3
2017-Jan-11 15:00N 52°04' W 017°27'1 1.3 1026.0 12.3
2017-Jan-11 14:00N 52°05' W 017°29'1 0.7 1026.8 12.3
2017-Jan-11 13:00N 52°05' W 017°30'1 1.3 1027.6 12.3
2017-Jan-11 12:00N 52°05' W 017°32'1 1.3 1027.9 12.3
2017-Jan-11 11:00N 52°06' W 017°34'1 0.7 1028.4 12.3
2017-Jan-11 10:00N 52°06' W 017°35'1 1.1 1028.4 12.3
2017-Jan-11 09:00N 52°06' W 017°37'0 0.4 1027.7 12.3
2017-Jan-11 08:00N 52°06' W 017°37'1 0.7 1027.5 12.3
2017-Jan-11 07:00N 52°06' W 017°38'1 0.7 1027.0 12.3
2017-Jan-11 06:00N 52°07' W 017°39'0 0.4 1026.9 12.3
2017-Jan-11 05:00N 52°07' W 017°40'0 0.4 1026.6 12.3
2017-Jan-11 04:00N 52°07' W 017°40'1 0.7 1026.4 12.3
2017-Jan-11 03:00N 52°07' W 017°41'   1025.8 12.3
Track history (hours):
 
Tides and Currents Weather Stations Pressure Air Temp Water Temp Dewpoint Dewpoint Depression Visibility Wind Speed Wind Dir Waves Ship Positions

Drifting buoy 47557

Last reported at 2017-Jan-21 03:00 UTC. Time now 2017-Jan-21 04:23 UTC.
Position N 50°39' W 017°01'.

Barometer 1017.4 mb
Water temperature 12.0 ° C

Date/timePositionNaut miles runAvg speedWind from/ knotsBaromVisibWave heightAir tempDewpointWater temp
2017-Jan-21 03:00N 50°39' W 017°01'0 0.4 1017.4 12.0
2017-Jan-21 02:00N 50°39' W 017°00'0 0.0 1017.6 12.0
2017-Jan-21 01:00N 50°39' W 017°00'0 0.4 1018.1 12.0
2017-Jan-21 00:00N 50°39' W 016°59'1 0.8 1018.4 12.0
2017-Jan-20 23:00N 50°39' W 016°58'0 0.4 1018.8 12.0
2017-Jan-20 22:00N 50°39' W 016°58'0 0.4 1019.1 12.0
2017-Jan-20 21:00N 50°39' W 016°57'1 0.7 1019.4 12.0
2017-Jan-20 20:00N 50°40' W 016°56'1 0.6 1019.7 12.0
2017-Jan-20 19:00N 50°40' W 016°56'0 0.0 1019.9 12.0
2017-Jan-20 18:00N 50°40' W 016°56'1 0.7 1020.2 12.0
2017-Jan-20 17:00N 50°41' W 016°56'0 0.0 1020.3 12.0
2017-Jan-20 16:00N 50°41' W 016°56'0 0.0 1020.8 12.0
2017-Jan-20 15:00N 50°41' W 016°56'1 0.8 1021.1 12.0
2017-Jan-20 14:00N 50°41' W 016°55'0 0.0 1021.8 12.0
2017-Jan-20 13:00N 50°41' W 016°55'0 0.4 1022.5 12.0
2017-Jan-20 12:00N 50°41' W 016°54'1 1.0 1023.3 12.0
2017-Jan-20 11:00N 50°41' W 016°53'1 0.8 1023.6 12.0
2017-Jan-20 10:00N 50°41' W 016°52'0 0.0 1023.8 12.0
2017-Jan-20 09:00N 50°41' W 016°52'1 0.7 1024.1 12.0
2017-Jan-20 08:00N 50°42' W 016°51'1 0.7 1024.1 12.0
2017-Jan-20 07:00N 50°43' W 016°50'0 0.4 1024.2 12.0
2017-Jan-20 06:00N 50°43' W 016°50'1 0.6 1024.5 12.0
2017-Jan-20 05:00N 50°43' W 016°50'0 0.0 1025.3 12.0
2017-Jan-20 04:00N 50°43' W 016°50'0 0.4 1025.2 12.0
2017-Jan-20 03:00N 50°43' W 016°49'1 0.4 1025.5 12.0
2017-Jan-20 01:00N 50°44' W 016°49'0 0.4 1025.9 12.0
2017-Jan-20 00:00N 50°44' W 016°48'1 0.8 1026.1 12.0
2017-Jan-19 23:00N 50°44' W 016°47'0 0.0 1026.5 12.0
2017-Jan-19 22:00N 50°44' W 016°47'1 0.7 1026.7 12.0
2017-Jan-19 21:00N 50°44' W 016°46'0 0.0 1027.1 12.0
2017-Jan-19 20:00N 50°44' W 016°46'1 0.7 1027.4 12.0
2017-Jan-19 19:00N 50°45' W 016°46'0 0.0 1027.5 12.0
2017-Jan-19 18:00N 50°45' W 016°46'1 0.6 1027.4 12.0
2017-Jan-19 17:00N 50°46' W 016°46'0 0.0 1027.5 12.0
2017-Jan-19 16:00N 50°46' W 016°46'0 0.4 1027.5 12.0
2017-Jan-19 15:00N 50°46' W 016°45'0 0.0 1027.3 12.0
2017-Jan-19 14:00N 50°46' W 016°45'0 0.4 1027.7 12.0
2017-Jan-19 13:00N 50°46' W 016°44'0 0.4 1028.2 11.9
2017-Jan-19 12:00N 50°46' W 016°44'1 0.8 1028.4 11.9
2017-Jan-19 11:00N 50°46' W 016°43'1 1.0 1028.6 11.9
2017-Jan-19 10:00N 50°46' W 016°41'0 0.0 1028.6 11.9
2017-Jan-19 09:00N 50°46' W 016°41'1 0.7 1028.4 11.9
2017-Jan-19 08:00N 50°47' W 016°41'0 0.4 1028.3 11.9
2017-Jan-19 07:00N 50°47' W 016°40'1 0.6 1028.2 11.9
2017-Jan-19 06:00N 50°47' W 016°40'1 0.7 1028.0 11.9
2017-Jan-19 05:00N 50°48' W 016°40'0 0.0 1028.2 11.9
2017-Jan-19 04:00N 50°48' W 016°40'0 0.0 1028.0 11.9
2017-Jan-19 03:00N 50°48' W 016°40'0 0.4 1028.0 11.9
2017-Jan-19 02:00N 50°48' W 016°39'0 0.4 1028.0 11.9
2017-Jan-19 01:00N 50°48' W 016°38'0 0.4 1028.2 11.9
2017-Jan-19 00:00N 50°48' W 016°38'1 0.7 1028.2 11.9
2017-Jan-18 23:00N 50°49' W 016°37'0 0.4 1028.2 11.9
2017-Jan-18 22:00N 50°49' W 016°37'1 1.0 1028.0 11.9
2017-Jan-18 21:00N 50°49' W 016°35'0 0.0 1028.1 11.9
2017-Jan-18 20:00N 50°49' W 016°35'1 0.7 1028.1 11.9
2017-Jan-18 19:00N 50°50' W 016°35'0 0.4 1027.9 11.9
2017-Jan-18 18:00N 50°50' W 016°34'1 0.6 1027.7 11.9
2017-Jan-18 17:00N 50°50' W 016°34'0 0.0 1027.7 11.9
2017-Jan-18 16:00N 50°50' W 016°34'1 0.7 1027.7 11.9
2017-Jan-18 15:00N 50°51' W 016°34'0 0.0 1027.9 12.0
2017-Jan-18 14:00N 50°51' W 016°34'0 0.0 1028.3 12.0
2017-Jan-18 13:00N 50°51' W 016°34'0 0.4 1028.7 12.0
2017-Jan-18 12:00N 50°51' W 016°33'0 0.4 1028.8 12.0
2017-Jan-18 11:00N 50°51' W 016°32'1 0.7 1029.0 12.0
2017-Jan-18 10:00N 50°52' W 016°32'0 0.4 1028.7 12.0
2017-Jan-18 09:00N 50°52' W 016°31'0 0.4 1028.4 12.0
2017-Jan-18 08:00N 50°52' W 016°31'1 0.6 1028.1 12.0
2017-Jan-18 07:00N 50°52' W 016°31'1 0.6 1027.8 12.0
2017-Jan-18 06:00N 50°53' W 016°31'0 0.4 1027.8 12.0
2017-Jan-18 05:00N 50°53' W 016°30'0 0.0 1027.7 12.0
2017-Jan-18 04:00N 50°53' W 016°30'1 0.6 1027.7 12.0
2017-Jan-18 03:00N 50°53' W 016°30'0 0.0 1028.1 12.0
2017-Jan-18 02:00N 50°53' W 016°30'0 0.0 1028.3 12.0
2017-Jan-18 01:00N 50°53' W 016°30'0 0.4 1028.3 12.0
2017-Jan-18 00:00N 50°53' W 016°29'0 0.4 1028.3 12.0
2017-Jan-17 23:00N 50°53' W 016°29'0 0.4 1028.2 12.0
2017-Jan-17 22:00N 50°53' W 016°28'0 0.4 1028.2 12.0
2017-Jan-17 21:00N 50°53' W 016°28'1 0.7 1028.0 12.0
2017-Jan-17 20:00N 50°54' W 016°27'0 0.0 1028.1 12.0
2017-Jan-17 19:00N 50°54' W 016°27'1 0.6 1027.6 12.0
2017-Jan-17 18:00N 50°55' W 016°27'1 0.6 1027.4 12.0
2017-Jan-17 17:00N 50°55' W 016°27'0 0.4 1027.2 12.0
2017-Jan-17 16:00N 50°55' W 016°28'1 0.6 1027.3 12.0
2017-Jan-17 15:00N 50°56' W 016°28'0 0.0 1027.2 12.0
2017-Jan-17 14:00N 50°56' W 016°28'0 0.0 1027.6 12.0
2017-Jan-17 13:00N 50°56' W 016°28'0 0.0 1027.9 12.0
2017-Jan-17 12:00N 50°56' W 016°28'0 0.4 1028.2 12.0
2017-Jan-17 11:00N 50°56' W 016°27'0 0.0 1028.2 12.0
2017-Jan-17 10:00N 50°56' W 016°27'1 1.0 1027.9 12.0
2017-Jan-17 09:00N 50°56' W 016°26'0 0.0 1027.7 12.0
2017-Jan-17 08:00N 50°56' W 016°26'0 0.0 1027.4 12.0
2017-Jan-17 07:00N 50°56' W 016°26'1 0.7 1027.5 12.0
2017-Jan-17 06:00N 50°57' W 016°25'0 0.0 1027.5 12.0
2017-Jan-17 05:00N 50°57' W 016°25'1 0.6 1027.9 12.0
2017-Jan-17 04:00N 50°58' W 016°25'0 0.4 1027.9 12.0
2017-Jan-17 03:00N 50°58' W 016°26'1 0.3 1028.2 12.0
2017-Jan-17 01:00N 50°58' W 016°26'0 0.4 1028.6 12.0
2017-Jan-17 00:00N 50°58' W 016°25'0 0.0 1028.8 12.0
2017-Jan-16 23:00N 50°58' W 016°25'1 0.7 1028.9 12.0
2017-Jan-16 22:00N 50°59' W 016°25'0 0.0 1028.8 12.0
2017-Jan-16 21:00N 50°59' W 016°25'1 0.7 1028.8 12.0
2017-Jan-16 20:00N 50°59' W 016°24'0 0.0 1028.8 12.0
2017-Jan-16 19:00N 50°59' W 016°24'1 0.6 1028.8 12.0
2017-Jan-16 18:00N 51°00' W 016°24'1 0.6 1028.9 12.0
2017-Jan-16 17:00N 51°01' W 016°24'0 0.4 1028.7 12.0
2017-Jan-16 16:00N 51°01' W 016°25'1 0.7 1028.9 12.1
2017-Jan-16 15:00N 51°01' W 016°25'0 0.0 1029.1 12.1
2017-Jan-16 14:00N 51°01' W 016°25'0 0.4 1029.5 12.1
2017-Jan-16 13:00N 51°01' W 016°26'1 0.6 1029.9 12.1
2017-Jan-16 12:00N 51°02' W 016°26'0 0.4 1030.4 12.1
2017-Jan-16 11:00N 51°02' W 016°25'0 0.0 1030.4 12.1
2017-Jan-16 10:00N 51°02' W 016°25'0 0.4 1030.1 12.1
2017-Jan-16 09:00N 51°02' W 016°25'0 0.0 1029.9 12.1
2017-Jan-16 08:00N 51°02' W 016°25'0 0.0 1029.4 12.1
2017-Jan-16 07:00N 51°02' W 016°25'1 0.7 1029.4 12.1
2017-Jan-16 06:00N 51°02' W 016°25'0 0.4 1029.4 12.1
2017-Jan-16 05:00N 51°02' W 016°26'1 0.6 1029.6 12.2
2017-Jan-16 04:00N 51°03' W 016°26'0 0.4 1029.7 12.2
2017-Jan-16 03:00N 51°03' W 016°26'1 0.7 1029.9 12.2
2017-Jan-16 01:00N 51°04' W 016°28'0 0.0 1030.1 12.2
2017-Jan-16 00:00N 51°04' W 016°28'0 0.0 1030.0 12.2
2017-Jan-15 23:00N 51°04' W 016°28'1 0.6 1030.1 12.2
2017-Jan-15 22:00N 51°05' W 016°28'0 0.0 1030.2 12.2
2017-Jan-15 21:00N 51°05' W 016°28'1 0.6 1030.1 12.2
2017-Jan-15 20:00N 51°05' W 016°28'0 0.0 1030.0 12.2
2017-Jan-15 19:00N 51°05' W 016°28'1 0.7 1030.0 12.2
2017-Jan-15 18:00N 51°06' W 016°28'0 0.0 1029.9 12.2
2017-Jan-15 17:00N 51°06' W 016°28'0 0.4 1029.8 12.2
2017-Jan-15 16:00N 51°06' W 016°29'1 0.7 1029.9 12.2
2017-Jan-15 15:00N 51°07' W 016°29'0 0.0 1029.9 12.2
2017-Jan-15 14:00N 51°07' W 016°29'1 0.7 1030.2 12.2
2017-Jan-15 13:00N 51°07' W 016°30'0 0.0 1030.4 12.2
2017-Jan-15 12:00N 51°07' W 016°30'0 0.0 1030.7 12.3
2017-Jan-15 11:00N 51°07' W 016°30'1 0.6 1030.7 12.3
2017-Jan-15 10:00N 51°08' W 016°30'0 0.0 1030.6 12.3
2017-Jan-15 09:00N 51°08' W 016°30'0 0.0 1030.2 12.3
2017-Jan-15 08:00N 51°08' W 016°30'0 0.0 1029.9 12.3
2017-Jan-15 07:00N 51°08' W 016°30'1 0.7 1029.7 12.3
2017-Jan-15 06:00N 51°08' W 016°29'0 0.0 1029.7 12.3
2017-Jan-15 05:00N 51°08' W 016°29'0 0.4 1029.7 12.3
2017-Jan-15 04:00N 51°08' W 016°30'0 0.0 1029.7 12.3
2017-Jan-15 03:00N 51°08' W 016°30'0 0.4 1029.7 12.3
2017-Jan-15 02:00N 51°08' W 016°31'1 0.7 1029.9 12.3
2017-Jan-15 01:00N 51°09' W 016°31'0 0.0 1030.3 12.3
2017-Jan-15 00:00N 51°09' W 016°31'1 0.6 1030.6 12.3
2017-Jan-14 23:00N 51°10' W 016°31'0 0.4 1030.9 12.3
2017-Jan-14 22:00N 51°10' W 016°32'1 1.2 1031.2 12.3
2017-Jan-14 21:00N 51°11' W 016°32'0 0.0 1031.2 12.3
2017-Jan-14 20:00N 51°11' W 016°32'0 0.0 1031.2 12.3
2017-Jan-14 19:00N 51°11' W 016°32'0 0.0 1031.3 12.3
2017-Jan-14 18:00N 51°11' W 016°32'1 0.6 1031.4 12.3
2017-Jan-14 17:00N 51°11' W 016°32'0 0.4 1031.7 12.3
2017-Jan-14 16:00N 51°11' W 016°32'1 0.6 1031.9 12.3
2017-Jan-14 15:00N 51°12' W 016°32'1 0.7 1032.2 12.3
2017-Jan-14 14:00N 51°13' W 016°33'0 0.4 1032.8 12.3
2017-Jan-14 13:00N 51°13' W 016°34'1 0.6 1033.3 12.3
2017-Jan-14 12:00N 51°13' W 016°34'0 0.4 1034.1 12.3
2017-Jan-14 11:00N 51°13' W 016°34'1 0.6 1034.1 12.3
2017-Jan-14 10:00N 51°14' W 016°34'1 0.6 1034.2 12.3
2017-Jan-14 09:00N 51°14' W 016°34'1 0.6 1033.5 12.3
2017-Jan-14 08:00N 51°15' W 016°34'0 0.0 1033.4 12.3
2017-Jan-14 07:00N 51°15' W 016°34'1 0.6 1033.2 12.3
2017-Jan-14 06:00N 51°16' W 016°34'1 0.6 1033.3 12.3
2017-Jan-14 05:00N 51°16' W 016°34'1 0.6 1034.1 12.3
2017-Jan-14 04:00N 51°17' W 016°34'1 0.7 1034.2 12.3
2017-Jan-14 03:00N 51°17' W 016°35'1 0.7 1034.4 12.3
2017-Jan-14 02:00N 51°18' W 016°35'0 0.4 1034.4 12.3
2017-Jan-14 01:00N 51°18' W 016°36'1 0.7 1034.6 12.3
2017-Jan-14 00:00N 51°19' W 016°37'1 0.7 1034.5 12.3
2017-Jan-13 23:00N 51°19' W 016°37'1 0.6 1034.3 12.3
2017-Jan-13 22:00N 51°20' W 016°37'1 1.3 1033.9 12.3
2017-Jan-13 21:00N 51°21' W 016°38'0 0.0 1033.7 12.3
2017-Jan-13 20:00N 51°21' W 016°38'1 0.6 1033.4 12.3
2017-Jan-13 19:00N 51°22' W 016°38'1 0.6 1033.5 12.3
2017-Jan-13 18:00N 51°22' W 016°38'1 0.6 1033.0 12.3
2017-Jan-13 17:00N 51°23' W 016°38'1 1.4 1032.7 12.3
2017-Jan-13 16:00N 51°24' W 016°39'0 0.0 1032.5 12.3
2017-Jan-13 15:00N 51°24' W 016°39'1 1.3 1032.9 12.3
2017-Jan-13 14:00N 51°25' W 016°40'1 0.7 1033.1 12.3
2017-Jan-13 13:00N 51°26' W 016°40'1 0.7 1033.5 12.3
2017-Jan-13 12:00N 51°26' W 016°41'1 1.2 1033.6 12.3
2017-Jan-13 11:00N 51°28' W 016°41'1 0.7 1033.2 12.3
2017-Jan-13 10:00N 51°28' W 016°41'1 1.3 1032.9 12.3
2017-Jan-13 09:00N 51°29' W 016°42'1 0.7 1032.5 12.3
2017-Jan-13 08:00N 51°30' W 016°43'1 0.7 1031.6 12.3
2017-Jan-13 07:00N 51°31' W 016°43'1 1.3 1030.9 12.3
2017-Jan-13 06:00N 51°32' W 016°44'1 0.7 1030.9 12.3
2017-Jan-13 05:00N 51°32' W 016°44'1 1.4 1030.2 12.3
2017-Jan-13 04:00N 51°34' W 016°46'0 0.0 1030.3 12.3
2017-Jan-13 03:00N 51°34' W 016°46'1 0.7 1029.9 12.3
2017-Jan-13 02:00N 51°34' W 016°46'2 2.4 1029.2 12.3
2017-Jan-13 01:00N 51°37' W 016°47'0 0.0 1028.4 12.3
2017-Jan-13 00:00N 51°37' W 016°47'1 1.4 1027.8 12.3
2017-Jan-12 23:00N 51°38' W 016°48'3 2.5 1027.2 12.3
2017-Jan-12 22:00N 51°40' W 016°49'0 0.0 1026.5 12.3
2017-Jan-12 21:00N 51°40' W 016°49'1 1.4 1025.8 12.4
2017-Jan-12 20:00N 51°41' W 016°50'1 1.3 1024.8 12.4
2017-Jan-12 19:00N 51°43' W 016°51'1 1.4 1023.5 12.3
2017-Jan-12 18:00N 51°44' W 016°52'2 2.3 1023.0 12.3
2017-Jan-12 17:00N 51°46' W 016°55'0 0.0 1022.1 12.3
2017-Jan-12 16:00N 51°46' W 016°55'1 1.0 1021.3 12.3
2017-Jan-12 15:00N 51°46' W 016°56'1 1.0 1020.4 12.3
2017-Jan-12 14:00N 51°47' W 016°57'1 1.4 1020.1 12.3
2017-Jan-12 13:00N 51°48' W 016°58'1 1.4 1020.2 12.3
2017-Jan-12 12:00N 51°49' W 016°59'1 0.7 1020.1 12.3
2017-Jan-12 11:00N 51°50' W 017°00'1 1.4 1019.5 12.3
2017-Jan-12 10:00N 51°51' W 017°01'3 2.8 1018.7 12.3
2017-Jan-12 09:00N 51°53' W 017°04'0 0.0 1018.5 12.3
2017-Jan-12 08:00N 51°53' W 017°04'1 1.4 1018.3 12.3
2017-Jan-12 07:00N 51°55' W 017°05'1 1.4 1017.9 12.3
2017-Jan-12 06:00N 51°56' W 017°06'1 1.3 1018.1 12.3
2017-Jan-12 05:00N 51°56' W 017°08'1 1.0 1018.6 12.3
2017-Jan-12 04:00N 51°57' W 017°09'3 2.5 1019.0 12.3
2017-Jan-12 03:00N 51°58' W 017°13'0 0.0 1019.7 12.2
2017-Jan-12 02:00N 51°58' W 017°13'1 1.0 1020.4 12.3
2017-Jan-12 01:00N 51°59' W 017°14'1 1.3 1021.3 12.3
2017-Jan-12 00:00N 51°59' W 017°16'1 1.0 1022.1 12.3
2017-Jan-11 23:00N 52°00' W 017°17'2 2.2 1022.5 12.3
2017-Jan-11 22:00N 52°01' W 017°20'0 0.0 1023.2 12.3
2017-Jan-11 21:00N 52°01' W 017°20'1 0.7 1023.6 12.3
2017-Jan-11 20:00N 52°02' W 017°20'1 1.0 1024.5 12.3
2017-Jan-11 19:00N 52°02' W 017°22'1 1.0 1024.8 12.3
2017-Jan-11 18:00N 52°03' W 017°23'1 1.0 1025.1 12.3
2017-Jan-11 17:00N 52°04' W 017°24'1 1.1 1025.4 12.3
2017-Jan-11 16:00N 52°04' W 017°26'1 1.0 1026.0 12.3
2017-Jan-11 15:00N 52°04' W 017°27'1 1.3 1026.0 12.3
2017-Jan-11 14:00N 52°05' W 017°29'1 0.7 1026.8 12.3
2017-Jan-11 13:00N 52°05' W 017°30'1 1.3 1027.6 12.3
2017-Jan-11 12:00N 52°05' W 017°32'1 1.3 1027.9 12.3
2017-Jan-11 11:00N 52°06' W 017°34'1 0.7 1028.4 12.3
2017-Jan-11 10:00N 52°06' W 017°35'1 1.1 1028.4 12.3
2017-Jan-11 09:00N 52°06' W 017°37'0 0.4 1027.7 12.3
2017-Jan-11 08:00N 52°06' W 017°37'1 0.7 1027.5 12.3
2017-Jan-11 07:00N 52°06' W 017°38'1 0.7 1027.0 12.3
2017-Jan-11 06:00N 52°07' W 017°39'0 0.4 1026.9 12.3
2017-Jan-11 05:00N 52°07' W 017°40'0 0.4 1026.6 12.3
2017-Jan-11 04:00N 52°07' W 017°40'1 0.7 1026.4 12.3
2017-Jan-11 03:00N 52°07' W 017°41'   1025.8 12.3

Dump ship's entire track history